Terminal Aerodrome Forecast
Issued by NWS Detroit/Pontiac, MI

Home | Current Version | Previous Version | Text Only | Print | Product List | Glossary On
Versions: 1 2 3 4 5 6 7 8 9 10 11 12 13 14 15 16 17 18 19 20
545
FTUS43 KDTX 201128
TAFFNT
TAF
KFNT 201128Z 2012/2112 06008KT 2SM BR OVC004
     FM201400 08006KT 3SM -RA BR OVC004
     FM202000 VRB03KT 4SM BR OVC007
     FM210400 18004KT 1SM BR OVC004
     FM210900 12004KT 1/2SM FG OVC004=

USA.gov is the U.S. government's official web portal to all federal, state and local government web resources and services.